createdAt,value
2018-10-03T00:00:07.818Z,88.80
2018-10-03T00:02:10.055Z,89.40
2018-10-03T00:04:12.229Z,89.80
2018-10-03T00:06:14.492Z,90.40
2018-10-03T00:08:16.885Z,90.10
2018-10-03T00:10:19.058Z,90.50
2018-10-03T00:12:21.232Z,90.40
2018-10-03T00:14:23.504Z,90.50
2018-10-03T00:16:25.756Z,90.80
2018-10-03T00:18:28.024Z,90.40
2018-10-03T00:20:30.288Z,90.80
2018-10-03T00:22:32.484Z,90.70
2018-10-03T00:24:34.686Z,91.00
2018-10-03T00:26:36.881Z,90.70
2018-10-03T00:28:39.136Z,90.60
2018-10-03T00:30:41.286Z,90.70
2018-10-03T00:32:43.496Z,90.70
2018-10-03T00:34:45.703Z,90.50
2018-10-03T00:36:47.912Z,90.40
2018-10-03T00:38:50.111Z,90.50
2018-10-03T00:40:52.299Z,90.20
2018-10-03T00:42:54.582Z,90.10
2018-10-03T00:44:56.831Z,90.20
2018-10-03T00:46:59.010Z,90.10
2018-10-03T00:49:01.248Z,90.30
2018-10-03T00:51:03.547Z,90.10
2018-10-03T00:53:06.054Z,90.40
2018-10-03T00:55:08.299Z,90.40
2018-10-03T00:57:10.468Z,90.20
2018-10-03T00:59:12.685Z,90.60
2018-10-03T01:01:14.902Z,90.10
2018-10-03T01:03:17.115Z,90.00
2018-10-03T01:05:19.301Z,90.20
2018-10-03T01:07:21.483Z,90.20
2018-10-03T01:09:23.662Z,90.30
2018-10-03T01:11:25.965Z,90.20
2018-10-03T01:13:28.193Z,90.60
2018-10-03T01:15:30.392Z,91.00
2018-10-03T01:17:32.559Z,90.50
2018-10-03T01:19:34.799Z,90.60
2018-10-03T01:21:36.982Z,90.40
2018-10-03T01:23:39.201Z,90.60
2018-10-03T01:25:41.380Z,90.60
2018-10-03T01:27:43.678Z,90.50
2018-10-03T01:29:45.930Z,90.60
2018-10-03T01:31:48.283Z,90.70
2018-10-03T01:33:50.554Z,90.60
2018-10-03T01:35:52.853Z,90.70
2018-10-03T01:37:55.090Z,90.70
2018-10-03T01:39:57.369Z,90.90
2018-10-03T01:41:59.624Z,90.70
2018-10-03T01:44:01.861Z,90.70
2018-10-03T01:46:04.182Z,90.80
2018-10-03T01:48:06.520Z,90.80
2018-10-03T01:50:08.692Z,90.80
2018-10-03T01:52:10.972Z,90.50
2018-10-03T01:54:13.154Z,90.60
2018-10-03T01:56:15.377Z,90.40
2018-10-03T01:58:17.559Z,90.00
2018-10-03T02:00:19.790Z,89.00
2018-10-03T02:02:21.986Z,89.50
2018-10-03T02:04:24.174Z,89.80
2018-10-03T02:06:26.459Z,89.90
2018-10-03T02:08:28.757Z,89.60
2018-10-03T02:10:31.015Z,89.80
2018-10-03T02:12:33.260Z,89.70
2018-10-03T02:14:35.493Z,89.70
2018-10-03T02:16:37.732Z,88.50
2018-10-03T02:18:40.023Z,88.20
2018-10-03T02:20:42.300Z,88.50
2018-10-03T02:22:44.575Z,88.50
2018-10-03T02:24:46.754Z,88.20
2018-10-03T02:26:48.946Z,88.30
2018-10-03T02:28:51.153Z,88.80
2018-10-03T02:30:53.332Z,88.60
2018-10-03T02:32:55.610Z,89.10
2018-10-03T02:34:57.821Z,89.40
2018-10-03T02:37:00.073Z,89.60
2018-10-03T02:39:02.316Z,89.60
2018-10-03T02:41:04.526Z,89.80
2018-10-03T02:43:06.743Z,89.80
2018-10-03T02:45:08.983Z,89.80
2018-10-03T02:47:11.184Z,89.40
2018-10-03T02:49:13.441Z,90.00
2018-10-03T02:51:15.699Z,89.70
2018-10-03T02:53:17.841Z,90.00
2018-10-03T02:55:20.019Z,90.10
2018-10-03T02:57:22.202Z,90.20
2018-10-03T02:59:24.430Z,90.20
2018-10-03T03:01:26.704Z,89.40
2018-10-03T03:03:28.831Z,89.40
2018-10-03T03:05:31.090Z,89.90
2018-10-03T03:07:33.375Z,88.60
2018-10-03T03:09:35.663Z,88.90
2018-10-03T03:11:37.818Z,88.50
2018-10-03T03:13:40.022Z,88.30
2018-10-03T03:15:42.275Z,88.30
2018-10-03T03:17:44.499Z,88.30
2018-10-03T03:19:46.743Z,87.90
2018-10-03T03:21:48.989Z,88.30
2018-10-03T03:23:51.214Z,88.50
2018-10-03T03:25:53.468Z,88.40
2018-10-03T03:27:55.675Z,88.40
2018-10-03T03:29:57.862Z,87.60
2018-10-03T03:32:00.169Z,88.40
2018-10-03T03:34:02.367Z,87.10
2018-10-03T03:36:04.663Z,88.40
2018-10-03T03:38:06.910Z,87.40
2018-10-03T03:40:09.171Z,88.40
2018-10-03T03:42:11.386Z,86.30
2018-10-03T03:44:13.603Z,87.50
2018-10-03T03:46:15.867Z,87.30
2018-10-03T03:48:18.253Z,87.60
2018-10-03T03:50:20.500Z,86.80
2018-10-03T03:52:22.788Z,88.40
2018-10-03T03:54:25.003Z,88.60
2018-10-03T03:56:27.259Z,88.40
2018-10-03T03:58:29.578Z,88.40
2018-10-03T04:00:31.775Z,86.10
2018-10-03T04:02:34.072Z,87.50
2018-10-03T04:04:36.312Z,87.50
2018-10-03T04:06:38.548Z,87.50
2018-10-03T04:08:40.790Z,87.50
2018-10-03T04:10:43.019Z,87.50
2018-10-03T04:12:45.208Z,87.00
2018-10-03T04:14:47.500Z,86.60
2018-10-03T04:16:49.742Z,87.50
2018-10-03T04:18:51.982Z,87.50
2018-10-03T04:20:54.227Z,87.50
2018-10-03T04:22:56.434Z,87.60
2018-10-03T04:24:58.696Z,87.60
2018-10-03T04:27:00.939Z,87.80
2018-10-03T04:29:03.816Z,88.60
2018-10-03T04:31:05.982Z,89.90
2018-10-03T04:33:08.199Z,89.80
2018-10-03T04:35:10.435Z,90.10
2018-10-03T04:37:12.715Z,90.00
2018-10-03T04:39:14.879Z,89.40
2018-10-03T04:41:17.093Z,90.20
2018-10-03T04:43:19.345Z,90.40
2018-10-03T04:45:21.571Z,90.20
2018-10-03T04:47:23.791Z,90.30
2018-10-03T04:49:26.016Z,90.30
2018-10-03T04:51:28.234Z,90.30
2018-10-03T04:53:30.459Z,90.20
2018-10-03T04:55:32.766Z,90.50
2018-10-03T04:57:35.020Z,90.00
2018-10-03T04:59:37.332Z,89.30
2018-10-03T05:01:39.691Z,89.40
2018-10-03T05:03:41.981Z,89.50
2018-10-03T05:05:44.231Z,89.10
2018-10-03T05:07:46.470Z,88.60
2018-10-03T05:09:48.704Z,88.90
2018-10-03T05:11:50.911Z,88.80
2018-10-03T05:13:53.171Z,88.90
2018-10-03T05:15:55.418Z,89.20
2018-10-03T05:17:57.684Z,89.50
2018-10-03T05:19:59.850Z,89.40
2018-10-03T05:22:02.080Z,89.40
2018-10-03T05:24:04.295Z,89.10
2018-10-03T05:26:06.643Z,89.90
2018-10-03T05:28:08.857Z,90.00
2018-10-03T05:30:11.073Z,90.20
2018-10-03T05:32:13.269Z,87.50
2018-10-03T05:34:15.534Z,87.80
2018-10-03T05:36:17.789Z,88.20
2018-10-03T05:38:20.049Z,88.40
2018-10-03T05:40:27.452Z,88.30
2018-10-03T05:42:29.698Z,89.00
2018-10-03T07:48:11.210Z,31.00
2018-10-03T08:06:50.063Z,21.20
2018-10-03T08:08:58.388Z,18.70
2018-10-03T08:11:07.947Z,22.30
2018-10-03T08:13:12.333Z,21.90
2018-10-03T08:15:33.246Z,24.60
2018-10-03T08:17:42.036Z,23.90
2018-10-03T08:21:57.306Z,26.90
2018-10-03T08:24:03.221Z,31.40
2018-10-03T08:26:09.417Z,33.60
2018-10-03T08:28:14.433Z,36.40
2018-10-03T08:30:17.236Z,33.30
2018-10-03T08:32:19.618Z,36.90
2018-10-03T08:34:21.889Z,39.70
2018-10-03T08:36:24.381Z,36.00
2018-10-03T08:38:28.381Z,34.60
2018-10-03T08:40:31.004Z,30.90
2018-10-03T08:42:33.339Z,32.30
2018-10-03T08:44:36.339Z,28.50
2018-10-03T08:46:38.700Z,30.10
2018-10-03T08:48:41.014Z,29.60
2018-10-03T08:50:43.222Z,25.90
2018-10-03T08:52:45.572Z,28.70
2018-10-03T08:54:49.332Z,25.00
2018-10-03T08:56:51.739Z,24.90
2018-10-03T08:59:13.396Z,25.40
2018-10-03T09:01:16.060Z,24.70
2018-10-03T09:03:19.720Z,24.50
2018-10-03T09:05:21.981Z,26.60
2018-10-03T09:07:24.376Z,28.50
2018-10-03T09:09:27.055Z,25.60
2018-10-03T09:11:29.566Z,26.80
2018-10-03T09:13:33.077Z,22.90
2018-10-03T09:15:35.729Z,18.80
2018-10-03T09:17:38.346Z,20.70
2018-10-03T09:19:42.680Z,21.80
2018-10-03T09:21:45.074Z,22.10
2018-10-03T09:23:47.996Z,22.80
2018-10-03T09:25:50.600Z,24.30
2018-10-03T09:27:55.733Z,23.60
2018-10-03T09:30:17.225Z,21.10
2018-10-03T09:32:24.702Z,23.20
2018-10-03T09:34:29.880Z,20.60
2018-10-03T09:36:33.355Z,19.10
2018-10-03T09:38:36.100Z,16.50
2018-10-03T09:40:42.070Z,13.30
2018-10-03T09:42:46.130Z,10.70
2018-10-03T09:44:48.943Z,11.70
2018-10-03T09:46:58.723Z,11.00
2018-10-03T09:49:06.462Z,10.00
2018-10-03T09:51:11.552Z,8.70
2018-10-03T09:53:14.531Z,7.10
2018-10-03T09:57:47.515Z,6.00
2018-10-03T09:59:59.271Z,7.10
2018-10-03T10:02:02.766Z,7.80
2018-10-03T10:04:06.411Z,9.30
2018-10-03T10:06:08.844Z,8.30
2018-10-03T10:08:11.422Z,7.80
2018-10-03T10:10:17.775Z,6.50
2018-10-03T10:12:22.451Z,8.80
2018-10-03T11:54:00.033Z,6.30
2018-10-03T11:56:02.360Z,17.80
2018-10-03T11:58:04.850Z,19.40
2018-10-03T12:00:07.098Z,18.70
2018-10-03T12:02:09.454Z,22.00
2018-10-03T12:04:24.485Z,22.20
2018-10-03T12:06:45.419Z,24.10
2018-10-03T12:08:47.907Z,24.30
2018-10-03T12:10:50.380Z,24.10
2018-10-03T12:12:52.998Z,23.50
2018-10-03T12:14:55.492Z,22.70
2018-10-03T12:16:58.134Z,23.30
2018-10-03T12:19:01.640Z,24.10
2018-10-03T12:21:05.428Z,24.70
2018-10-03T12:23:07.908Z,25.40
2018-10-03T12:25:10.291Z,28.60
2018-10-03T12:27:12.452Z,33.20
2018-10-03T12:29:14.700Z,42.00
2018-10-03T12:31:17.088Z,45.10
2018-10-03T12:33:19.711Z,51.50
2018-10-03T12:35:27.808Z,49.70
2018-10-03T12:37:30.017Z,48.10
2018-10-03T12:39:32.515Z,48.60
2018-10-03T12:41:34.896Z,50.70
2018-10-03T12:43:37.399Z,49.80
2018-10-03T12:45:39.723Z,52.50
2018-10-03T12:47:42.071Z,51.30
2018-10-03T12:49:44.394Z,45.20
2018-10-03T12:51:46.820Z,46.10
2018-10-03T12:53:56.324Z,40.90
2018-10-03T12:55:58.711Z,37.50
2018-10-03T12:58:01.063Z,33.50
2018-10-03T13:00:03.582Z,31.20
2018-10-03T13:02:06.336Z,30.30
2018-10-03T13:04:08.881Z,27.30
2018-10-03T13:06:11.180Z,27.70
2018-10-03T13:08:13.943Z,25.70
2018-10-03T13:10:16.372Z,29.70
2018-10-03T13:12:18.786Z,29.50
2018-10-03T13:14:21.171Z,29.00
2018-10-03T13:16:23.662Z,28.50
2018-10-03T13:18:26.302Z,29.30
2018-10-03T13:20:47.728Z,30.00
2018-10-03T13:22:50.176Z,31.60
2018-10-03T13:24:52.588Z,34.80
2018-10-03T13:26:54.812Z,33.70
2018-10-03T13:28:57.178Z,33.50
2018-10-03T13:30:59.522Z,36.40
2018-10-03T13:33:01.823Z,36.00
2018-10-03T13:35:04.502Z,35.60
2018-10-03T13:37:06.952Z,35.40
2018-10-03T13:39:09.843Z,35.40
2018-10-03T13:41:12.186Z,37.10
2018-10-03T13:43:14.403Z,36.70
2018-10-03T13:45:16.700Z,29.80
2018-10-03T13:47:19.096Z,25.40
2018-10-03T13:49:21.379Z,25.10
2018-10-03T13:51:23.882Z,27.40
2018-10-03T13:53:28.801Z,23.40
2018-10-03T13:55:31.103Z,16.40
2018-10-03T13:57:33.504Z,15.80
2018-10-03T13:59:35.988Z,10.10
2018-10-03T14:01:38.487Z,10.40
2018-10-03T14:03:40.975Z,10.80
2018-10-03T14:05:45.844Z,9.50
2018-10-03T14:07:57.007Z,5.00
2018-10-03T14:09:59.302Z,5.50
2018-10-03T14:12:04.059Z,3.90
2018-10-03T14:14:06.460Z,3.60
2018-10-03T14:16:08.759Z,2.50
2018-10-03T14:18:11.059Z,1.30
2018-10-03T14:20:13.355Z,2.10
2018-10-03T14:22:18.785Z,4.00
2018-10-03T14:24:22.900Z,5.20
2018-10-03T14:26:25.180Z,8.40
2018-10-03T14:28:28.747Z,7.10
2018-10-03T14:30:31.003Z,10.80
2018-10-03T14:32:33.369Z,12.70
2018-10-03T14:34:35.679Z,13.60
2018-10-03T14:36:38.162Z,14.70
2018-10-03T14:38:40.458Z,13.80
2018-10-03T14:40:43.398Z,13.00
2018-10-03T14:42:46.688Z,13.20
2018-10-03T14:44:49.062Z,11.40
2018-10-03T14:46:51.522Z,10.60
2018-10-03T14:48:54.080Z,11.30
2018-10-03T14:50:56.563Z,8.90
2018-10-03T14:52:58.878Z,7.30
2018-10-03T14:55:01.685Z,6.60
2018-10-03T14:57:03.815Z,7.30
2018-10-03T14:59:05.944Z,7.10
2018-10-03T15:01:08.094Z,8.80
2018-10-03T15:03:10.162Z,7.10
2018-10-03T15:05:12.291Z,7.30
2018-10-03T15:07:14.391Z,8.90
2018-10-03T15:09:16.506Z,6.70
2018-10-03T15:11:19.019Z,6.80
2018-10-03T15:13:21.235Z,5.60
2018-10-03T15:15:23.415Z,8.20
2018-10-03T15:17:25.644Z,7.40
2018-10-03T15:19:27.970Z,7.30
2018-10-03T15:21:30.238Z,7.80
2018-10-03T15:23:32.519Z,8.80
2018-10-03T15:25:34.853Z,9.70
2018-10-03T15:27:37.121Z,12.60
2018-10-03T15:29:39.307Z,13.60
2018-10-03T15:31:41.548Z,15.30
2018-10-03T15:33:43.638Z,16.20
2018-10-03T15:35:45.905Z,18.40
2018-10-03T15:37:48.205Z,19.20
2018-10-03T15:39:50.541Z,19.30
2018-10-03T15:41:52.918Z,21.20
2018-10-03T15:43:55.177Z,21.80
2018-10-03T15:45:57.586Z,22.50
2018-10-03T15:47:59.848Z,22.80
2018-10-03T15:50:02.089Z,24.20
2018-10-03T15:52:04.360Z,23.90
2018-10-03T15:54:06.583Z,24.30
2018-10-03T15:56:09.056Z,25.60
2018-10-03T15:58:11.491Z,26.20
2018-10-03T16:00:13.677Z,26.60
2018-10-03T16:02:15.929Z,27.30
2018-10-03T16:04:18.104Z,28.60
2018-10-03T16:06:20.647Z,28.60
2018-10-03T16:08:22.819Z,30.50
2018-10-03T16:10:25.100Z,32.00
2018-10-03T16:12:27.328Z,32.00
2018-10-03T16:14:29.603Z,34.60
2018-10-03T16:16:31.966Z,35.20
2018-10-03T16:18:34.186Z,35.20
2018-10-03T16:20:36.566Z,36.90
2018-10-03T16:22:38.791Z,36.80
2018-10-03T16:24:41.049Z,36.80
2018-10-03T16:26:43.300Z,38.60
2018-10-03T16:28:45.421Z,39.60
2018-10-03T16:31:01.988Z,39.80
2018-10-03T16:33:04.364Z,41.60
2018-10-03T16:35:06.786Z,41.50
2018-10-03T16:37:09.080Z,42.50
2018-10-03T16:39:12.883Z,43.50
2018-10-03T16:41:15.211Z,43.00
2018-10-03T16:43:17.488Z,44.40
2018-10-03T16:45:19.747Z,43.50
2018-10-03T16:47:22.121Z,44.20
2018-10-03T16:49:24.379Z,43.40
2018-10-03T16:51:26.707Z,42.90
2018-10-03T16:53:28.845Z,43.60
2018-10-03T16:55:31.516Z,44.60
2018-10-03T16:57:34.168Z,45.60
2018-10-03T16:59:36.478Z,46.90
2018-10-03T17:01:38.831Z,46.80
2018-10-03T17:03:47.474Z,48.50
2018-10-03T17:05:50.251Z,49.20
2018-10-03T17:07:52.914Z,50.60
2018-10-03T17:09:55.954Z,51.30
2018-10-03T17:11:58.434Z,51.10
2018-10-03T17:14:28.520Z,52.20
2018-10-03T17:16:33.148Z,51.60
2018-10-03T17:18:36.175Z,52.20
2018-10-03T17:20:38.692Z,51.10
2018-10-03T17:22:41.292Z,53.20
2018-10-03T17:24:43.832Z,53.70
2018-10-03T17:26:46.303Z,53.20
2018-10-03T17:28:48.621Z,53.70
2018-10-03T17:30:51.657Z,54.70
2018-10-03T17:32:54.130Z,54.30
2018-10-03T17:34:57.352Z,55.80
2018-10-03T17:36:59.738Z,56.60
2018-10-03T17:39:05.374Z,57.70
2018-10-03T17:41:10.758Z,58.60
2018-10-03T17:43:13.711Z,60.80
2018-10-03T17:45:16.087Z,61.50
2018-10-03T17:47:19.489Z,62.20
2018-10-03T17:49:23.711Z,63.30
2018-10-03T17:51:26.062Z,64.10
2018-10-03T17:53:29.306Z,64.40
2018-10-03T17:55:32.447Z,64.20
2018-10-03T17:57:34.717Z,64.20
2018-10-03T17:59:36.956Z,62.20
2018-10-03T18:01:44.142Z,63.40
2018-10-03T18:03:47.331Z,63.80
2018-10-03T18:05:50.664Z,60.70
2018-10-03T18:07:53.103Z,61.30
2018-10-03T18:09:55.395Z,60.50
2018-10-03T18:11:58.215Z,60.30
2018-10-03T18:14:01.465Z,59.80
2018-10-03T18:16:04.911Z,58.20
2018-10-03T18:18:17.334Z,60.30
2018-10-03T18:20:25.171Z,61.20
2018-10-03T18:22:30.755Z,60.30
2018-10-03T18:24:33.573Z,59.40
2018-10-03T18:26:51.285Z,60.10
2018-10-03T18:28:54.716Z,60.10
2018-10-03T18:30:59.248Z,60.10
2018-10-03T18:33:03.859Z,60.90
2018-10-03T18:35:08.796Z,61.40
2018-10-03T18:37:14.803Z,61.80
2018-10-03T18:39:20.562Z,61.30
2018-10-03T18:41:27.321Z,61.70
2018-10-03T18:43:31.967Z,62.00
2018-10-03T18:45:35.155Z,61.60
2018-10-03T18:47:38.030Z,61.80
2018-10-03T18:49:42.652Z,62.20
2018-10-03T18:51:47.214Z,62.10
2018-10-03T18:54:11.739Z,62.90
2018-10-03T18:56:16.485Z,63.50
2018-10-03T18:58:21.053Z,63.90
2018-10-03T19:00:36.032Z,64.30
2018-10-03T19:02:44.775Z,65.00
2018-10-03T19:04:50.159Z,65.20
2018-10-03T19:07:01.558Z,65.20
2018-10-03T19:09:07.511Z,66.40
2018-10-03T19:11:13.200Z,67.00
2018-10-03T19:13:22.909Z,66.30
2018-10-03T19:15:28.749Z,67.00
2018-10-03T19:17:48.205Z,67.90
2018-10-03T20:38:41.990Z,87.00
2018-10-03T20:40:45.015Z,87.90
2018-10-03T20:42:47.282Z,88.30
2018-10-03T20:44:49.877Z,88.20
2018-10-03T20:46:52.335Z,87.70
2018-10-03T20:48:54.595Z,87.90
2018-10-03T20:50:56.964Z,88.20
2018-10-03T20:52:59.446Z,87.70
2018-10-03T20:55:02.696Z,87.20
2018-10-03T20:57:13.629Z,88.70
2018-10-03T20:59:20.580Z,88.00
2018-10-03T21:01:23.078Z,88.00
2018-10-03T21:03:25.618Z,86.90
2018-10-03T21:05:28.010Z,87.00
2018-10-03T21:07:30.296Z,86.40
2018-10-03T21:09:33.601Z,86.90
2018-10-03T21:11:36.002Z,87.40
2018-10-03T21:13:38.263Z,87.10
2018-10-03T21:15:40.604Z,87.20
2018-10-03T21:17:43.131Z,85.50
2018-10-03T21:20:18.320Z,85.20
2018-10-03T21:22:20.723Z,86.20
2018-10-03T21:24:30.347Z,86.20
2018-10-03T21:26:36.886Z,86.80
2018-10-03T21:28:40.094Z,86.80
2018-10-03T21:30:42.350Z,86.80
2018-10-03T21:32:47.676Z,86.70
2018-10-03T21:34:50.349Z,85.60
2018-10-03T21:36:53.123Z,86.60
2018-10-03T21:38:55.737Z,85.20
2018-10-03T21:40:58.625Z,85.30
2018-10-03T21:43:01.088Z,85.50
2018-10-03T21:45:03.516Z,84.50
2018-10-03T21:47:05.845Z,84.90
2018-10-03T21:49:08.314Z,85.40
2018-10-03T21:51:10.538Z,85.00
2018-10-03T21:53:12.755Z,85.50
2018-10-03T21:55:14.954Z,85.90
2018-10-03T21:57:17.165Z,85.50
2018-10-03T21:59:19.416Z,85.80
2018-10-03T22:01:21.585Z,85.40
2018-10-03T22:03:24.425Z,85.90
2018-10-03T22:05:26.709Z,85.90
2018-10-03T22:07:29.088Z,85.50
2018-10-03T22:09:31.901Z,84.40
2018-10-03T22:11:38.063Z,83.90
2018-10-03T22:13:40.264Z,84.50
2018-10-03T22:15:43.279Z,85.20
2018-10-03T22:17:45.545Z,84.60
2018-10-03T22:19:47.718Z,85.00
2018-10-03T22:21:49.949Z,84.60
2018-10-03T22:23:52.154Z,85.00
2018-10-03T22:25:54.393Z,84.80
2018-10-03T22:27:56.625Z,84.10
2018-10-03T22:29:58.796Z,83.40
2018-10-03T22:32:00.993Z,82.70
2018-10-03T22:34:03.185Z,82.70
2018-10-03T22:36:05.334Z,82.40
2018-10-03T22:38:07.513Z,81.70
2018-10-03T22:40:09.630Z,82.00
2018-10-03T22:42:11.758Z,82.10
2018-10-03T22:44:13.943Z,81.20
2018-10-03T22:46:16.125Z,81.20
2018-10-03T22:48:18.290Z,81.50
2018-10-03T22:50:20.458Z,81.40
2018-10-03T22:52:22.754Z,81.10
2018-10-03T22:54:25.014Z,81.10
2018-10-03T22:56:27.210Z,80.50
2018-10-03T22:58:29.391Z,81.10
2018-10-03T23:00:31.578Z,81.40
2018-10-03T23:02:33.837Z,81.60
2018-10-03T23:04:36.077Z,81.40
2018-10-03T23:06:38.294Z,81.70
2018-10-03T23:08:40.469Z,81.80
2018-10-03T23:10:42.653Z,81.80
2018-10-03T23:12:44.842Z,81.80
2018-10-03T23:14:47.073Z,81.50
2018-10-03T23:16:49.327Z,80.90
2018-10-03T23:18:51.535Z,80.70
2018-10-03T23:20:53.727Z,80.50
2018-10-03T23:22:55.957Z,80.00
2018-10-03T23:24:58.213Z,79.50
2018-10-03T23:27:00.386Z,81.80
2018-10-03T23:29:02.942Z,82.20
2018-10-03T23:31:05.199Z,83.70
2018-10-03T23:33:07.474Z,83.90
2018-10-03T23:35:09.688Z,84.00
2018-10-03T23:37:11.957Z,83.20
2018-10-03T23:39:14.172Z,83.20
2018-10-03T23:41:16.342Z,83.20
2018-10-03T23:43:18.514Z,84.00
2018-10-03T23:45:20.719Z,83.50
2018-10-03T23:47:22.895Z,84.20
2018-10-03T23:49:25.104Z,84.60
2018-10-03T23:51:27.331Z,84.60
2018-10-03T23:53:29.591Z,85.00
2018-10-03T23:55:31.775Z,84.30
2018-10-03T23:57:34.038Z,84.30
2018-10-03T23:59:36.124Z,84.50
